Time;durP1;ratioP1;P1;durP2;ratioP2;P2;SDS_P1;SDS_P2;PMS_P1;PMS_P2;Temp;Humidity;BMP_temperature;BMP_pressure;BME280_temperature;BME280_humidity;BME280_pressure;Samples;Min_cycle;Max_cycle;Signal;HPM_P1;HPM_P2
2024/02/14 00:00:53;;;;;;;18.90;7.50;;;;;;;6.91;100.00;101300.28;5084972;28;20029;-75
2024/02/14 00:03:20;;;;;;;18.90;7.20;;;;;;;6.93;100.00;101282.81;5086008;28;20039;-72
2024/02/14 00:05:45;;;;;;;19.08;7.60;;;;;;;6.94;100.00;101285.47;5085009;28;20056;-79
2024/02/14 00:08:13;;;;;;;18.35;7.57;;;;;;;6.89;100.00;101271.34;5064827;28;20035;-75
2024/02/14 00:10:39;;;;;;;19.65;7.40;;;;;;;6.95;100.00;101282.00;5085712;28;20081;-78
2024/02/14 00:13:04;;;;;;;20.67;8.20;;;;;;;6.95;100.00;101282.00;5082613;28;20409;-72
2024/02/14 00:15:30;;;;;;;18.83;7.72;;;;;;;6.95;100.00;101283.75;5085341;28;20395;-79
2024/02/14 00:17:55;;;;;;;21.42;7.72;;;;;;;6.98;100.00;101282.09;5082100;28;20813;-74
2024/02/14 00:20:21;;;;;;;20.13;7.90;;;;;;;7.02;100.00;101266.38;5084446;28;20024;-70
2024/02/14 00:22:47;;;;;;;18.75;7.65;;;;;;;7.06;100.00;101276.13;5084571;28;20036;-71
2024/02/14 00:25:13;;;;;;;20.10;7.97;;;;;;;7.07;100.00;101264.78;5065206;28;20452;-70
2024/02/14 00:27:39;;;;;;;19.45;8.05;;;;;;;7.09;100.00;101260.44;5081785;28;20463;-70
2024/02/14 00:30:05;;;;;;;19.38;7.53;;;;;;;7.13;100.00;101263.19;5085827;28;20073;-71
2024/02/14 00:32:31;;;;;;;20.17;7.70;;;;;;;7.24;100.00;101257.31;5082255;28;20471;-86
2024/02/14 00:34:56;;;;;;;19.00;7.47;;;;;;;7.22;100.00;101270.41;5084904;28;20103;-71
2024/02/14 00:37:21;;;;;;;18.58;7.60;;;;;;;7.20;100.00;101247.56;5083316;28;20039;-71
2024/02/14 00:39:49;;;;;;;19.00;7.43;;;;;;;7.24;100.00;101254.69;5085730;28;20044;-71
2024/02/14 00:42:16;;;;;;;19.00;8.00;;;;;;;7.23;100.00;101248.53;5065466;28;20033;-71
2024/02/14 00:44:41;;;;;;;19.60;7.90;;;;;;;7.20;100.00;101244.94;5085351;28;20032;-89
2024/02/14 00:47:07;;;;;;;19.92;7.78;;;;;;;7.24;100.00;101246.81;5082563;28;20391;-88
2024/02/14 00:49:35;;;;;;;19.42;7.85;;;;;;;7.28;100.00;101254.81;5086252;28;20028;-88
2024/02/14 00:52:00;;;;;;;19.05;7.68;;;;;;;7.32;100.00;101245.22;5086526;28;20032;-89
2024/02/14 00:54:25;;;;;;;19.60;8.00;;;;;;;7.33;100.00;101252.28;5083912;28;20054;-89
2024/02/14 00:56:51;;;;;;;18.95;7.25;;;;;;;7.41;100.00;101244.56;5084208;28;20040;-88
2024/02/14 00:59:16;;;;;;;20.05;8.13;;;;;;;7.35;100.00;101250.56;5085059;28;20050;-87
2024/02/14 01:01:42;;;;;;;19.13;7.85;;;;;;;7.38;100.00;101248.00;5064328;28;20382;-73
2024/02/14 01:04:07;;;;;;;19.02;7.70;;;;;;;7.38;100.00;101255.88;5085124;28;20077;-72
2024/02/14 01:06:32;;;;;;;20.10;8.00;;;;;;;7.42;100.00;101270.03;5081521;28;20025;-74
2024/02/14 01:08:58;;;;;;;19.17;8.00;;;;;;;7.46;100.00;101253.47;5084596;28;20032;-75
2024/02/14 01:11:23;;;;;;;19.15;8.18;;;;;;;7.52;100.00;101253.59;5082816;28;20441;-78
2024/02/14 01:13:48;;;;;;;18.90;7.55;;;;;;;7.49;100.00;101250.91;5082816;28;20027;-78
2024/02/14 01:16:14;;;;;;;19.05;7.60;;;;;;;7.54;100.00;101254.50;5084044;28;20028;-74
2024/02/14 01:18:39;;;;;;;19.27;7.43;;;;;;;7.54;100.00;101257.13;5081036;28;20051;-75
2024/02/14 01:21:05;;;;;;;19.27;7.57;;;;;;;7.57;100.00;101254.63;5084629;28;20114;-73
2024/02/14 01:23:31;;;;;;;20.05;7.28;;;;;;;7.66;100.00;101257.44;5063974;28;20021;-75
2024/02/14 01:25:56;;;;;;;18.45;7.40;;;;;;;7.72;100.00;101255.78;5065649;28;20112;-71
2024/02/14 01:28:21;;;;;;;19.17;7.13;;;;;;;7.77;100.00;101256.78;5082499;28;20035;-75
2024/02/14 01:30:47;;;;;;;19.48;7.50;;;;;;;7.76;100.00;101265.53;5082636;28;20028;-76
2024/02/14 01:33:12;;;;;;;18.20;7.13;;;;;;;7.85;100.00;101252.59;5083967;28;20084;-72
2024/02/14 01:35:37;;;;;;;19.45;7.43;;;;;;;7.90;100.00;101256.19;5081035;28;20135;-72
2024/02/14 01:38:03;;;;;;;18.83;6.97;;;;;;;7.97;100.00;101259.88;5084215;28;20024;-70
2024/02/14 01:40:29;;;;;;;17.83;6.97;;;;;;;8.03;100.00;101257.38;5081489;28;20459;-71
2024/02/14 01:42:55;;;;;;;18.67;7.07;;;;;;;8.04;100.00;101248.63;5083388;28;20032;-71
2024/02/14 01:45:21;;;;;;;18.42;6.45;;;;;;;8.10;100.00;101259.28;5082686;28;20020;-75
2024/02/14 01:47:47;;;;;;;18.17;6.60;;;;;;;8.15;100.00;101264.63;5081816;28;20073;-73
2024/02/14 01:50:13;;;;;;;18.42;6.40;;;;;;;8.18;100.00;101256.78;5083982;28;20036;-70
2024/02/14 01:52:40;;;;;;;18.50;6.80;;;;;;;8.18;100.00;101256.78;5082323;28;20550;-83
2024/02/14 01:55:07;;;;;;;17.83;6.40;;;;;;;8.23;100.00;101265.69;5081959;28;20036;-73
2024/02/14 01:57:34;;;;;;;17.58;6.40;;;;;;;8.24;100.00;101256.91;5084895;28;20145;-70
2024/02/14 02:00:07;;;;;;;18.30;6.13;;;;;;;8.25;100.00;101252.53;5082280;28;20032;-71
2024/02/14 02:02:33;;;;;;;19.88;6.72;;;;;;;8.25;100.00;101258.69;5084350;28;20459;-70
2024/02/14 02:04:59;;;;;;;17.92;6.47;;;;;;;8.14;100.00;101261.13;5081599;28;20044;-70
2024/02/14 02:07:25;;;;;;;19.23;6.90;;;;;;;8.06;100.00;101265.31;5083596;28;20032;-70
2024/02/14 02:09:50;;;;;;;19.20;7.03;;;;;;;8.08;100.00;101265.34;5084476;28;20029;-71
2024/02/14 02:12:16;;;;;;;18.15;6.60;;;;;;;8.02;100.00;101263.47;5083479;28;20033;-71
2024/02/14 02:14:41;;;;;;;19.13;7.35;;;;;;;8.02;100.00;101274.00;5081013;28;20414;-76
2024/02/14 02:17:08;;;;;;;20.73;7.50;;;;;;;8.02;100.00;101274.00;5084475;28;20032;-70
2024/02/14 02:19:34;;;;;;;19.20;7.22;;;;;;;8.05;100.00;101265.28;5081163;28;20457;-87
2024/02/14 02:22:00;;;;;;;18.80;7.30;;;;;;;8.01;100.00;101265.22;5083659;28;20077;-87
2024/02/14 02:24:26;;;;;;;18.92;6.95;;;;;;;8.04;100.00;101264.41;5082304;28;20024;-71
2024/02/14 02:26:51;;;;;;;18.63;7.43;;;;;;;8.04;100.00;101261.78;5082776;28;20089;-70
2024/02/14 02:29:16;;;;;;;18.75;7.45;;;;;;;8.05;100.00;101266.16;5083388;28;20107;-70
2024/02/14 02:31:42;;;;;;;19.08;7.43;;;;;;;8.05;100.00;101258.28;5081627;28;20025;-70
2024/02/14 02:34:10;;;;;;;19.65;7.35;;;;;;;8.17;100.00;101265.56;5085482;28;20020;-82
2024/02/14 02:36:37;;;;;;;19.75;7.30;;;;;;;8.16;100.00;101259.38;5082377;28;20115;-88
2024/02/14 02:39:04;;;;;;;19.85;7.80;;;;;;;8.19;100.00;101263.84;5080837;28;20048;-88
2024/02/14 02:41:31;;;;;;;19.83;7.43;;;;;;;8.28;100.00;101264.03;5088455;28;20044;-87
2024/02/14 02:43:57;;;;;;;19.27;7.32;;;;;;;8.28;100.00;101263.16;5086831;28;20046;-88
2024/02/14 02:46:22;;;;;;;18.83;7.32;;;;;;;8.23;100.00;101268.31;5091480;28;20026;-86
2024/02/14 02:48:48;;;;;;;19.05;7.70;;;;;;;8.19;100.00;101269.09;5088692;28;20108;-89
2024/02/14 02:51:16;;;;;;;19.23;8.27;;;;;;;8.17;100.00;101262.94;5086621;28;20031;-89
2024/02/14 02:53:42;;;;;;;20.38;8.27;;;;;;;8.19;100.00;101269.09;5071265;28;20394;-88
2024/02/14 02:56:07;;;;;;;20.15;8.32;;;;;;;8.19;100.00;101261.22;5086424;28;20027;-88
2024/02/14 02:58:33;;;;;;;20.08;8.02;;;;;;;8.27;100.00;101257.00;5089105;28;20039;-88
2024/02/14 03:00:59;;;;;;;19.45;7.95;;;;;;;8.34;100.00;101253.63;5086394;28;20032;-88
2024/02/14 03:03:27;;;;;;;19.17;7.78;;;;;;;8.37;100.00;101247.50;5088137;28;20387;-89
2024/02/14 03:05:53;;;;;;;19.65;7.75;;;;;;;8.42;100.00;101250.22;5071633;28;20024;-86
2024/02/14 03:08:19;;;;;;;19.45;7.32;;;;;;;8.47;100.00;101269.69;5088207;28;20115;-88
2024/02/14 03:10:45;;;;;;;19.73;7.72;;;;;;;8.44;100.00;101252.06;5085955;28;20066;-88
2024/02/14 03:13:13;;;;;;;19.83;7.90;;;;;;;8.45;100.00;101251.22;5087784;28;20478;-88
2024/02/14 03:15:39;;;;;;;19.08;7.50;;;;;;;8.48;100.00;101259.19;5084408;28;20376;-87
2024/02/14 03:18:09;;;;;;;19.13;7.30;;;;;;;8.49;100.00;101262.69;5087887;28;20130;-87
2024/02/14 03:20:35;;;;;;;18.48;7.18;;;;;;;8.50;100.00;101259.22;5083479;28;20025;-89
2024/02/14 03:23:03;;;;;;;19.83;7.47;;;;;;;8.50;100.00;101259.22;5086205;28;20020;-85
2024/02/14 03:25:29;;;;;;;19.85;8.02;;;;;;;8.37;100.00;101279.13;5066135;28;20036;-89
2024/02/14 03:27:57;;;;;;;20.08;8.27;;;;;;;8.37;100.00;101269.50;5085259;28;20047;-89
2024/02/14 03:30:22;;;;;;;18.85;7.85;;;;;;;8.43;100.00;101255.56;5084888;28;20447;-89
2024/02/14 03:32:52;;;;;;;18.92;7.97;;;;;;;8.48;100.00;101275.00;5084345;28;20055;-72
2024/02/14 03:35:19;;;;;;;19.00;7.65;;;;;;;8.47;100.00;101270.56;5085164;28;20039;-72
2024/02/14 03:37:48;;;;;;;19.45;8.05;;;;;;;8.52;100.00;101268.94;5083350;28;20159;-71
2024/02/14 03:40:14;;;;;;;20.00;7.90;;;;;;;8.55;100.00;101268.13;5085748;28;20036;-72
2024/02/14 03:42:39;;;;;;;19.85;8.02;;;;;;;8.56;100.00;101277.78;5082778;28;20043;-72
2024/02/14 03:45:06;;;;;;;20.55;8.43;;;;;;;8.55;100.00;101278.66;5068497;28;20074;-74
2024/02/14 03:47:32;;;;;;;19.80;8.70;;;;;;;8.52;100.00;101279.47;5065183;28;20086;-71
2024/02/14 03:49:58;;;;;;;19.17;8.32;;;;;;;8.58;100.00;101288.34;5084980;28;20029;-80
2024/02/14 03:52:24;;;;;;;19.70;8.48;;;;;;;8.60;100.00;101282.25;5083161;28;20081;-80
2024/02/14 03:54:50;;;;;;;21.05;8.45;;;;;;;8.71;100.00;101274.56;5084059;28;20032;-72
2024/02/14 03:57:16;;;;;;;19.38;8.10;;;;;;;8.76;100.00;101272.00;5085130;28;20036;-72
2024/02/14 03:59:41;;;;;;;19.67;7.72;;;;;;;8.81;100.00;101275.59;5082620;28;20029;-73
2024/02/14 04:02:09;;;;;;;19.40;7.93;;;;;;;8.79;100.00;101282.63;5086076;28;20024;-74
2024/02/14 04:04:39;;;;;;;19.58;8.10;;;;;;;8.79;100.00;101282.63;5082323;28;20020;-71
2024/02/14 04:07:05;;;;;;;19.02;7.53;;;;;;;8.85;100.00;101282.72;5085767;28;20024;-74
2024/02/14 04:09:32;;;;;;;19.27;7.90;;;;;;;8.88;100.00;101288.03;5083120;28;20048;-70
2024/02/14 04:11:58;;;;;;;19.42;7.80;;;;;;;8.89;100.00;101284.56;5085142;28;20040;-70
2024/02/14 04:14:23;;;;;;;18.92;7.57;;;;;;;8.90;100.00;101291.63;5083978;28;20020;-70
2024/02/14 04:16:48;;;;;;;19.50;7.90;;;;;;;8.87;100.00;101286.28;5083388;28;20063;-70
2024/02/14 04:19:17;;;;;;;19.55;7.80;;;;;;;8.89;100.00;101281.91;5084974;28;20040;-70
2024/02/14 04:21:42;;;;;;;19.15;7.50;;;;;;;8.89;100.00;101280.16;5082173;28;20057;-70
2024/02/14 04:24:08;;;;;;;19.65;7.68;;;;;;;8.87;100.00;101289.81;5085781;28;20063;-71
2024/02/14 04:26:34;;;;;;;19.95;7.78;;;;;;;8.90;100.00;101281.94;5082298;28;20120;-76
2024/02/14 04:28:59;;;;;;;19.30;7.90;;;;;;;8.93;100.00;101293.38;5084943;28;20555;-78
2024/02/14 04:31:26;;;;;;;18.48;7.57;;;;;;;8.88;100.00;101290.69;5081652;28;20120;-69
2024/02/14 04:33:53;;;;;;;18.67;7.43;;;;;;;8.89;100.00;101292.47;5066515;28;20180;-70
2024/02/14 04:36:19;;;;;;;19.73;7.45;;;;;;;8.86;100.00;101293.28;5083269;28;20090;-76
2024/02/14 04:38:47;;;;;;;19.17;7.57;;;;;;;8.92;100.00;101295.16;5066884;28;20046;-81
2024/02/14 04:41:14;;;;;;;20.20;7.53;;;;;;;8.92;100.00;101303.06;5082386;28;20170;-78
2024/02/14 04:43:39;;;;;;;19.25;7.72;;;;;;;8.87;100.00;101302.09;5085559;28;20484;-74
2024/02/14 04:46:06;;;;;;;19.17;7.97;;;;;;;8.87;100.00;101317.94;5082230;28;20082;-77
2024/02/14 04:48:33;;;;;;;18.55;8.00;;;;;;;8.85;100.00;101311.72;5085092;28;20051;-76
2024/02/14 04:50:58;;;;;;;19.60;8.07;;;;;;;8.91;100.00;101306.56;5082664;28;20035;-77
2024/02/14 04:53:23;;;;;;;20.35;8.00;;;;;;;8.93;100.00;101309.22;5083994;28;20037;-76
2024/02/14 04:55:49;;;;;;;18.45;7.90;;;;;;;8.96;100.00;101317.22;5083575;28;20389;-72
2024/02/14 04:58:14;;;;;;;20.08;8.35;;;;;;;8.95;100.00;101315.44;5081671;28;20060;-71
2024/02/14 05:00:40;;;;;;;19.90;8.63;;;;;;;8.81;100.00;101313.44;5067076;28;20070;-76
2024/02/14 05:03:05;;;;;;;21.33;9.45;;;;;;;8.75;100.00;101317.69;5080954;28;20029;-77
2024/02/14 05:05:33;;;;;;;19.50;9.30;;;;;;;8.69;100.00;101322.00;5084142;28;20126;-75
2024/02/14 05:07:58;;;;;;;21.95;10.20;;;;;;;8.59;100.00;101317.41;5082228;28;20027;-80
2024/02/14 05:10:24;;;;;;;20.63;10.18;;;;;;;8.61;100.00;101328.84;5082977;28;20031;-77
2024/02/14 05:12:49;;;;;;;21.80;10.77;;;;;;;8.58;100.00;101326.16;5083638;28;20103;-82
2024/02/14 05:15:15;;;;;;;21.65;10.40;;;;;;;8.64;100.00;101335.94;5081808;28;20063;-83
2024/02/14 05:17:44;;;;;;;22.67;10.65;;;;;;;8.61;100.00;101323.56;5084429;28;20410;-77
2024/02/14 05:20:09;;;;;;;20.63;10.25;;;;;;;8.62;100.00;101317.44;5081153;28;20074;-71
2024/02/14 05:22:38;;;;;;;22.33;10.85;;;;;;;8.62;100.00;101324.44;5084315;28;20383;-71
2024/02/14 05:25:10;;;;;;;20.38;10.25;;;;;;;8.60;100.00;101327.06;5081698;28;20052;-74
2024/02/14 05:27:36;;;;;;;21.93;11.40;;;;;;;8.62;100.00;101333.25;5084688;28;20032;-71
2024/02/14 05:30:05;;;;;;;22.60;10.95;;;;;;;8.64;100.00;101342.06;5084943;28;20274;-71
2024/02/14 05:32:31;;;;;;;21.73;11.02;;;;;;;8.69;100.00;101339.53;5063896;28;20064;-73
2024/02/14 05:34:57;;;;;;;21.48;10.60;;;;;;;8.72;100.00;101335.22;5083808;28;20021;-78
2024/02/14 05:37:23;;;;;;;22.45;11.18;;;;;;;8.68;100.00;101333.38;5085120;28;20032;-85
2024/02/14 05:39:48;;;;;;;21.80;11.20;;;;;;;8.68;100.00;101351.81;5083629;28;20380;-87
2024/02/14 05:42:15;;;;;;;21.50;11.25;;;;;;;8.63;100.00;101337.66;5085604;28;20360;-80
2024/02/14 05:44:42;;;;;;;22.05;10.93;;;;;;;8.64;100.00;101339.44;5085875;28;20024;-76
2024/02/14 05:47:08;;;;;;;21.13;11.00;;;;;;;8.66;100.00;101337.72;5082431;28;20029;-89
2024/02/14 05:49:33;;;;;;;21.75;11.23;;;;;;;8.67;100.00;101344.78;5085215;28;20505;-72
2024/02/14 05:51:59;;;;;;;21.92;11.35;;;;;;;8.64;100.00;101334.16;5083091;28;20036;-89
2024/02/14 05:54:25;;;;;;;22.17;11.48;;;;;;;8.66;100.00;101339.47;5083604;28;20048;-89
2024/02/14 05:56:50;;;;;;;21.83;10.95;;;;;;;8.67;100.00;101349.16;5082969;28;20429;-87
2024/02/14 05:59:16;;;;;;;22.40;11.30;;;;;;;8.71;100.00;101354.53;5081733;28;20082;-89
2024/02/14 06:01:41;;;;;;;22.50;11.70;;;;;;;8.64;100.00;101342.06;5085306;28;20122;-82
2024/02/14 06:04:07;;;;;;;23.20;12.90;;;;;;;8.65;100.00;101342.94;5081272;28;20028;-88
2024/02/14 06:06:32;;;;;;;23.13;12.52;;;;;;;8.66;100.00;101350.00;5084297;28;20107;-89
2024/02/14 06:08:57;;;;;;;23.13;12.98;;;;;;;8.63;100.00;101345.56;5082456;28;20054;-83
2024/02/14 06:11:23;;;;;;;23.80;12.75;;;;;;;8.64;100.00;101342.06;5082320;28;20024;-71
2024/02/14 06:13:48;;;;;;;24.30;13.65;;;;;;;8.62;100.00;101359.63;5083241;28;20036;-73
2024/02/14 06:16:14;;;;;;;24.05;14.35;;;;;;;8.61;100.00;101359.59;5065202;28;20052;-79
2024/02/14 06:18:40;;;;;;;26.52;14.73;;;;;;;8.60;100.00;101356.03;5088478;28;20068;-80
2024/02/14 06:21:06;;;;;;;24.85;15.00;;;;;;;8.60;100.00;101361.31;5084863;28;20075;-79
2024/02/14 06:23:31;;;;;;;25.73;15.43;;;;;;;8.61;100.00;101378.03;5087514;28;20060;-78
2024/02/14 06:25:57;;;;;;;26.30;15.98;;;;;;;8.61;100.00;101380.69;5086129;28;20381;-82
2024/02/14 06:28:22;;;;;;;28.20;15.43;;;;;;;8.62;100.00;101375.44;5085641;28;20035;-82
2024/02/14 06:30:48;;;;;;;26.55;16.13;;;;;;;8.64;100.00;101386.00;5087163;28;20028;-82
2024/02/14 06:33:13;;;;;;;27.17;16.13;;;;;;;8.65;100.00;101380.75;5084744;28;20024;-79
2024/02/14 06:35:39;;;;;;;26.58;15.88;;;;;;;8.68;100.00;101386.09;5087473;28;20501;-79
2024/02/14 06:38:05;;;;;;;26.40;15.93;;;;;;;8.69;100.00;101390.53;5084538;28;20033;-80
2024/02/14 06:40:30;;;;;;;27.10;15.85;;;;;;;8.69;100.00;101390.53;5086263;28;20052;-78
2024/02/14 06:42:56;;;;;;;26.63;15.70;;;;;;;8.70;100.00;101400.19;5085367;28;20036;-76
2024/02/14 06:45:22;;;;;;;27.35;16.02;;;;;;;8.70;100.00;101389.63;5085485;28;20427;-77
2024/02/14 06:47:47;;;;;;;28.67;16.48;;;;;;;8.71;100.00;101394.06;5068662;28;20099;-74
2024/02/14 06:50:12;;;;;;;28.80;15.77;;;;;;;8.77;100.00;101395.94;5084255;28;20379;-81
2024/02/14 06:52:38;;;;;;;26.92;15.82;;;;;;;8.75;100.00;101394.13;5087699;28;20471;-74
2024/02/14 06:55:04;;;;;;;27.13;16.70;;;;;;;8.77;100.00;101389.78;5084480;28;20360;-72
2024/02/14 06:57:29;;;;;;;27.70;16.25;;;;;;;8.77;100.00;101395.06;5086489;28;20024;-81
2024/02/14 06:59:54;;;;;;;27.92;15.52;;;;;;;8.76;100.00;101402.06;5086576;28;20493;-71
2024/02/14 07:02:20;;;;;;;28.20;16.02;;;;;;;8.79;100.00;101409.16;5085552;28;20028;-82
2024/02/14 07:04:46;;;;;;;28.45;15.95;;;;;;;8.76;100.00;101404.69;5086765;28;20028;-74
2024/02/14 07:07:11;;;;;;;28.27;15.55;;;;;;;8.80;100.00;101411.81;5083818;28;20055;-81
2024/02/14 07:09:38;;;;;;;28.38;16.58;;;;;;;8.79;100.00;101404.75;5087259;28;20498;-71
2024/02/14 07:12:04;;;;;;;28.00;16.42;;;;;;;8.79;100.00;101424.97;5084203;28;20063;-71
2024/02/14 07:14:29;;;;;;;29.25;16.48;;;;;;;8.79;100.00;101425.84;5086236;28;20493;-84
2024/02/14 07:16:55;;;;;;;27.52;16.13;;;;;;;8.84;100.00;101420.66;5085230;28;20089;-74
2024/02/14 07:19:20;;;;;;;26.95;15.75;;;;;;;8.83;100.00;101419.78;5084781;28;20037;-74
2024/02/14 07:21:45;;;;;;;28.42;17.02;;;;;;;8.82;100.00;101425.91;5086466;28;20024;-85
2024/02/14 07:24:11;;;;;;;28.88;16.80;;;;;;;8.85;100.00;101419.81;5065265;28;20070;-76
2024/02/14 07:26:36;;;;;;;29.38;17.13;;;;;;;8.82;100.00;101419.75;5086818;28;20024;-72
2024/02/14 07:29:03;;;;;;;29.88;17.35;;;;;;;8.83;100.00;101429.44;5084249;28;20039;-71
2024/02/14 07:31:33;;;;;;;28.60;17.35;;;;;;;8.84;100.00;101423.31;5085575;28;20087;-71
2024/02/14 07:33:59;;;;;;;29.42;18.15;;;;;;;8.81;100.00;101425.88;5084833;28;20032;-74
2024/02/14 07:36:24;;;;;;;30.13;18.08;;;;;;;8.83;100.00;101427.69;5085030;28;20028;-76
2024/02/14 07:38:50;;;;;;;31.15;17.63;;;;;;;8.86;100.00;101433.03;5085085;28;20517;-84
2024/02/14 07:41:15;;;;;;;29.85;18.02;;;;;;;8.85;100.00;101433.00;5062133;28;20047;-77
2024/02/14 07:43:41;;;;;;;29.92;17.08;;;;;;;8.88;100.00;101422.50;5065049;28;20032;-71
2024/02/14 07:46:07;;;;;;;28.98;17.50;;;;;;;8.87;100.00;101421.63;5063108;28;20033;-70
2024/02/14 07:48:33;;;;;;;28.88;17.15;;;;;;;8.88;100.00;101431.31;5065787;28;20021;-71
2024/02/14 07:50:59;;;;;;;28.92;17.38;;;;;;;8.90;100.00;101434.00;5063938;28;20113;-72
2024/02/14 07:53:25;;;;;;;29.85;18.00;;;;;;;8.89;100.00;101440.13;5064270;28;20053;-70
2024/02/14 07:55:50;;;;;;;28.95;17.10;;;;;;;8.89;100.00;101432.22;5065300;28;20450;-75
2024/02/14 07:58:16;;;;;;;30.98;18.02;;;;;;;8.89;100.00;101437.47;5063119;28;20131;-70
2024/02/14 08:00:41;;;;;;;29.35;16.85;;;;;;;8.91;100.00;101427.84;5065931;28;20036;-72
2024/02/14 08:03:07;;;;;;;29.63;17.27;;;;;;;8.94;100.00;101429.66;5062791;28;20124;-77
2024/02/14 08:05:33;;;;;;;30.00;16.38;;;;;;;8.96;100.00;101433.25;5064184;28;20032;-74
2024/02/14 08:07:59;;;;;;;30.40;16.25;;;;;;;9.00;100.00;101432.41;5064546;28;20039;-85
2024/02/14 08:10:24;;;;;;;28.67;15.88;;;;;;;9.02;100.00;101446.53;5064812;28;20108;-87
2024/02/14 08:12:51;;;;;;;29.63;16.65;;;;;;;8.99;100.00;101436.81;5065463;28;20048;-86
2024/02/14 08:15:16;;;;;;;27.52;15.55;;;;;;;9.02;100.00;101439.50;5063467;28;20497;-84
2024/02/14 08:17:41;;;;;;;27.95;15.40;;;;;;;9.02;100.00;101441.25;5066587;28;20494;-82
2024/02/14 08:20:07;;;;;;;29.42;16.50;;;;;;;9.01;100.00;101439.47;5063123;28;20115;-82
2024/02/14 08:22:33;;;;;;;27.48;15.70;;;;;;;9.04;100.00;101437.81;5065535;28;20036;-76
2024/02/14 08:24:59;;;;;;;29.42;15.75;;;;;;;9.08;100.00;101438.75;5062537;28;20032;-77
2024/02/14 08:27:25;;;;;;;28.67;16.20;;;;;;;9.08;100.00;101433.47;5064483;28;20075;-82
2024/02/14 08:29:50;;;;;;;28.35;16.60;;;;;;;9.07;100.00;101432.59;5065116;28;20032;-71
2024/02/14 08:32:16;;;;;;;27.60;15.70;;;;;;;9.13;100.00;101442.38;5063348;28;20032;-75
2024/02/14 08:34:41;;;;;;;25.58;14.73;;;;;;;9.18;100.00;101437.19;5062315;28;20490;-81
2024/02/14 08:37:08;;;;;;;27.70;14.77;;;;;;;9.16;100.00;101444.16;5065926;28;20032;-86
2024/02/14 08:39:33;;;;;;;27.10;15.40;;;;;;;9.15;100.00;101439.75;5060768;28;20107;-86
2024/02/14 08:42:01;;;;;;;26.40;15.20;;;;;;;9.15;100.00;101439.75;5064894;28;20124;-87
2024/02/14 08:44:27;;;;;;;27.25;15.60;;;;;;;9.17;100.00;101445.94;5064401;28;20024;-77
2024/02/14 08:46:53;;;;;;;27.60;15.07;;;;;;;9.22;100.00;101444.31;5062512;28;20044;-73
2024/02/14 08:49:18;;;;;;;28.60;15.13;;;;;;;9.25;100.00;101453.16;5064631;28;20064;-71
2024/02/14 08:51:46;;;;;;;28.15;14.95;;;;;;;9.29;100.00;101451.47;5062203;28;20052;-71
2024/02/14 08:54:11;;;;;;;28.65;15.20;;;;;;;9.32;100.00;101438.34;5065088;28;20024;-75
2024/02/14 08:56:37;;;;;;;26.88;13.93;;;;;;;9.37;100.00;101446.34;5065132;28;20150;-80
2024/02/14 08:59:04;;;;;;;28.92;15.05;;;;;;;9.40;100.00;101452.53;5062971;28;20067;-78
2024/02/14 09:01:30;;;;;;;25.63;14.23;;;;;;;9.47;100.00;101472.03;5061795;28;20118;-71
2024/02/14 09:03:55;;;;;;;25.25;13.05;;;;;;;9.52;100.00;101456.28;5063339;28;20483;-70
2024/02/14 09:06:21;;;;;;;26.48;13.13;;;;;;;9.55;100.00;101461.63;5064467;28;20029;-70
2024/02/14 09:08:47;;;;;;;24.73;12.35;;;;;;;9.59;100.00;101466.97;5062636;28;20021;-74
2024/02/14 09:11:13;;;;;;;25.60;12.88;;;;;;;9.60;100.00;101465.25;5065371;28;20025;-70
2024/02/14 09:13:42;;;;;;;24.20;12.32;;;;;;;9.66;100.00;101454.78;5064069;28;20025;-72
2024/02/14 09:16:10;;;;;;;24.40;12.18;;;;;;;9.67;100.00;101467.13;5061875;28;20093;-75
2024/02/14 09:18:37;;;;;;;23.35;12.52;;;;;;;9.71;100.00;101474.25;5061381;28;20463;-75
2024/02/14 09:21:05;;;;;;;23.50;12.07;;;;;;;9.73;100.00;101469.88;5064099;28;20067;-75
2024/02/14 09:23:32;;;;;;;23.13;12.20;;;;;;;9.75;100.00;101476.06;5062186;28;20032;-80
2024/02/14 09:25:58;;;;;;;25.90;11.95;;;;;;;9.81;100.00;101479.69;5062795;28;20052;-82
2024/02/14 09:28:23;;;;;;;23.90;12.15;;;;;;;9.80;100.00;101473.53;5063358;28;20046;-70
2024/02/14 09:30:48;;;;;;;24.58;12.40;;;;;;;9.82;100.00;101479.72;5065556;28;20124;-70
2024/02/14 09:33:14;;;;;;;23.25;11.45;;;;;;;9.85;100.00;101477.13;5061224;28;20037;-70
2024/02/14 09:35:44;;;;;;;24.35;11.35;;;;;;;9.89;100.00;101473.66;5064831;28;20027;-70
2024/02/14 09:38:10;;;;;;;22.98;11.43;;;;;;;9.95;100.00;101478.19;5061112;28;20415;-70
2024/02/14 09:40:36;;;;;;;23.20;11.38;;;;;;;9.91;100.00;101481.63;5075947;28;20059;-70
2024/02/14 09:43:05;;;;;;;23.23;11.00;;;;;;;9.98;100.00;101465.00;5080613;28;20436;-83
2024/02/14 09:45:33;;;;;;;22.92;11.35;;;;;;;9.94;100.00;101479.91;5082297;28;20467;-71
2024/02/14 09:47:59;;;;;;;22.13;11.02;;;;;;;9.95;100.00;101488.75;5083241;28;20025;-79
2024/02/14 09:50:25;;;;;;;23.15;10.85;;;;;;;9.99;100.00;101487.94;5086290;28;20431;-71
2024/02/14 09:52:51;;;;;;;22.77;10.73;;;;;;;10.09;100.00;101478.38;5087738;28;20033;-87
2024/02/14 09:55:17;;;;;;;22.40;11.35;;;;;;;10.10;100.00;101483.69;5090179;28;20036;-87
2024/02/14 09:57:43;;;;;;;22.88;11.45;;;;;;;10.03;100.00;101480.94;5087252;28;20031;-86
2024/02/14 10:00:15;;;;;;;22.13;11.82;;;;;;;9.97;100.00;101480.84;5086200;28;20119;-87
2024/02/14 10:02:41;;;;;;;24.08;12.02;;;;;;;9.92;100.00;101484.28;5086967;28;20616;-88
2024/02/14 10:05:07;;;;;;;23.85;11.80;;;;;;;9.91;100.00;101485.13;5090329;28;20060;-85
2024/02/14 10:07:43;;;;;;;23.83;12.15;;;;;;;9.94;100.00;101481.66;5087026;28;20038;-85
2024/02/14 10:10:09;;;;;;;23.27;12.23;;;;;;;9.90;100.00;101485.13;5090768;28;20042;-88
2024/02/14 10:12:35;;;;;;;24.00;12.50;;;;;;;9.85;100.00;101494.72;5086476;28;20035;-87
2024/02/14 10:15:01;;;;;;;24.35;12.00;;;;;;;9.86;100.00;101494.75;5090278;28;20445;-88
2024/02/14 10:17:27;;;;;;;24.42;11.73;;;;;;;9.86;100.00;101499.13;5070787;28;20024;-87
2024/02/14 10:20:04;;;;;;;24.65;12.35;;;;;;;9.89;100.00;101497.44;5088219;28;20039;-90
2024/02/14 10:22:37;;;;;;;24.08;12.15;;;;;;;9.92;100.00;101493.97;5090863;28;20095;-84
2024/02/14 10:25:03;;;;;;;;;;;;;;;10.01;100.00;101509.97;5089411;28;20032;-87
2024/02/14 10:27:31;;;;;;;23.73;12.32;;;;;;;9.96;100.00;101501.09;5086777;28;20329;-74
2024/02/14 10:29:57;;;;;;;23.08;11.82;;;;;;;10.00;100.00;101507.31;5089168;28;20386;-76
2024/02/14 10:32:24;;;;;;;22.73;11.52;;;;;;;10.03;100.00;101516.19;5085241;28;20044;-85
2024/02/14 10:34:49;;;;;;;22.67;11.43;;;;;;;10.04;100.00;101512.66;5088262;28;20147;-78
2024/02/14 10:37:18;;;;;;;23.50;11.18;;;;;;;10.09;100.00;101518.00;5086373;28;20115;-73
2024/02/14 10:39:46;;;;;;;23.88;11.60;;;;;;;10.15;100.00;101517.22;5086993;28;20534;-72
2024/02/14 10:42:13;;;;;;;21.95;10.50;;;;;;;10.24;100.00;101512.13;5086490;28;20047;-73
2024/02/14 10:44:38;;;;;;;22.30;10.55;;;;;;;10.26;100.00;101510.38;5086790;28;20120;-72
2024/02/14 10:47:07;;;;;;;22.10;10.23;;;;;;;10.29;100.00;101521.00;5087971;28;20055;-74
2024/02/14 10:49:34;;;;;;;21.63;10.82;;;;;;;10.27;100.00;101513.03;5085254;28;20063;-73
2024/02/14 10:52:04;;;;;;;22.05;10.50;;;;;;;10.30;100.00;101497.22;5069728;28;20034;-74
2024/02/14 10:54:29;;;;;;;21.65;9.80;;;;;;;10.32;100.00;101510.47;5084742;28;20065;-83
2024/02/14 10:56:58;;;;;;;21.27;10.00;;;;;;;10.30;100.00;101512.22;5083934;28;20029;-74
2024/02/14 10:59:25;;;;;;;21.50;10.45;;;;;;;10.26;100.00;101510.38;5084176;28;20599;-80
2024/02/14 11:01:51;;;;;;;20.55;9.68;;;;;;;10.25;100.00;101509.50;5086786;28;20024;-86
2024/02/14 11:04:18;;;;;;;20.40;9.05;;;;;;;10.27;100.00;101510.41;5087287;28;20081;-86
2024/02/14 11:06:47;;;;;;;19.42;8.55;;;;;;;10.28;100.00;101521.84;5085132;28;20148;-85